Time,TemperatureF,DewpointF,PressureIn,WindDirection,WindDirectionDegrees,WindSpeedMPH,WindSpeedGustMPH,Humidity,HourlyPrecipIn,Conditions,Clouds,dailyrainin,SolarRadiationWatts/m^2,SoftwareType,DateUTC
2013-03-17 00:02:00,52.0,26.0,-100.00,WNW,293,20.0,48.0,36,0.00,,,0.00,0.000000,,2013-03-17 07:02:00,
2013-03-17 00:12:00,52.0,26.0,-100.00,WNW,293,20.0,48.0,36,0.00,,,0.00,0.000000,,2013-03-17 07:12:00,
2013-03-17 00:22:00,52.0,26.0,-100.00,WNW,293,20.0,48.0,36,0.00,,,0.00,0.000000,,2013-03-17 07:22:00,
2013-03-17 00:32:00,51.0,27.0,-100.00,West,281,20.0,41.0,39,0.00,,,0.00,0.000000,,2013-03-17 07:32:00,
2013-03-17 00:52:00,51.0,27.0,-100.00,West,281,20.0,41.0,39,0.00,,,0.00,0.000000,,2013-03-17 07:52:00,
2013-03-17 01:02:00,51.0,27.0,-100.00,West,281,20.0,41.0,39,0.00,,,0.00,0.000000,,2013-03-17 08:02:00,
2013-03-17 01:12:00,51.0,27.0,-100.00,West,281,20.0,41.0,39,0.00,,,0.00,0.000000,,2013-03-17 08:12:00,
2013-03-17 01:22:00,51.0,27.0,-100.00,West,281,20.0,41.0,39,0.00,,,0.00,0.000000,,2013-03-17 08:22:00,
2013-03-17 01:32:00,50.0,23.0,-100.00,WNW,295,20.0,35.0,35,0.00,,,0.00,0.000000,,2013-03-17 08:32:00,
2013-03-17 01:52:00,50.0,23.0,-100.00,WNW,295,20.0,35.0,35,0.00,,,0.00,0.000000,,2013-03-17 08:52:00,
2013-03-17 02:02:00,50.0,23.0,-100.00,WNW,295,20.0,35.0,35,0.00,,,0.00,0.000000,,2013-03-17 09:02:00,
2013-03-17 02:12:00,50.0,23.0,-100.00,WNW,295,20.0,35.0,35,0.00,,,0.00,0.000000,,2013-03-17 09:12:00,
2013-03-17 02:22:00,50.0,23.0,-100.00,WNW,295,20.0,35.0,35,0.00,,,0.00,0.000000,,2013-03-17 09:22:00,
2013-03-17 02:32:00,51.0,18.0,-100.00,WNW,296,21.0,33.0,27,0.00,,,0.00,0.000000,,2013-03-17 09:32:00,
2013-03-17 02:53:00,51.0,18.0,-100.00,WNW,296,21.0,33.0,27,0.00,,,0.00,0.000000,,2013-03-17 09:53:00,
2013-03-17 03:03:00,51.0,18.0,-100.00,WNW,296,21.0,33.0,27,0.00,,,0.00,0.000000,,2013-03-17 10:03:00,
2013-03-17 03:12:00,51.0,18.0,-100.00,WNW,296,21.0,33.0,27,0.00,,,0.00,0.000000,,2013-03-17 10:12:00,
2013-03-17 03:23:00,51.0,18.0,-100.00,WNW,296,21.0,33.0,27,0.00,,,0.00,0.000000,,2013-03-17 10:23:00,
2013-03-17 03:52:00,54.0,9.0,-100.00,WNW,293,26.0,44.0,16,0.00,,,0.00,0.000000,,2013-03-17 10:52:00,
2013-03-17 04:02:00,54.0,9.0,-100.00,WNW,293,26.0,44.0,16,0.00,,,0.00,0.000000,,2013-03-17 11:02:00,
2013-03-17 04:52:00,54.0,4.0,-100.00,WNW,292,28.0,45.0,13,0.00,,,0.00,0.000000,,2013-03-17 11:52:00,
2013-03-17 05:02:00,54.0,4.0,-100.00,WNW,292,28.0,45.0,13,0.00,,,0.00,0.000000,,2013-03-17 12:02:00,
2013-03-17 05:52:00,58.0,-9.0,-100.00,WNW,286,25.0,43.0,6,0.00,,,0.00,0.000000,,2013-03-17 12:52:00,
2013-03-17 06:02:00,58.0,-9.0,-100.00,WNW,286,25.0,43.0,6,0.00,,,0.00,0.000000,,2013-03-17 13:02:00,
2013-03-17 06:52:00,55.0,-15.0,-100.00,NNW,338,15.0,45.0,5,0.00,,,0.00,0.000000,,2013-03-17 13:52:00,
2013-03-17 07:02:00,55.0,-15.0,-100.00,NNW,338,15.0,45.0,5,0.00,,,0.00,0.000000,,2013-03-17 14:02:00,
2013-03-17 07:53:00,53.0,-7.0,-100.00,NNE,12,2.0,27.0,8,-99.99,,,0.00,14.000000,,2013-03-17 14:53:00,
2013-03-17 08:02:00,53.0,-7.0,-100.00,NNE,12,2.0,27.0,8,-99.99,,,0.00,14.000000,,2013-03-17 15:02:00,
2013-03-17 08:53:00,58.0,-3.0,-100.00,SW,221,2.0,8.0,8,0.00,,,0.00,195.000000,,2013-03-17 15:53:00,
2013-03-17 09:03:00,58.0,-3.0,-100.00,SW,221,2.0,8.0,8,0.00,,,0.00,195.000000,,2013-03-17 16:03:00,
2013-03-17 09:52:00,59.0,0.0,-100.00,SE,136,4.0,10.0,9,-99.99,,,0.00,362.000000,,2013-03-17 16:52:00,
2013-03-17 10:02:00,59.0,0.0,-100.00,SE,136,4.0,10.0,9,-99.99,,,0.00,362.000000,,2013-03-17 17:02:00,
2013-03-17 10:32:00,60.0,12.0,-100.00,NNW,342,8.0,13.0,15,0.00,,,0.00,362.000000,,2013-03-17 17:32:00,
2013-03-17 10:53:00,60.0,12.0,-100.00,NNW,342,8.0,13.0,15,0.00,,,0.00,362.000000,,2013-03-17 17:53:00,
2013-03-17 11:02:00,60.0,12.0,-100.00,NNW,342,8.0,13.0,15,0.00,,,0.00,362.000000,,2013-03-17 18:02:00,
2013-03-17 11:12:00,60.0,12.0,-100.00,NNW,342,8.0,13.0,15,0.00,,,0.00,362.000000,,2013-03-17 18:12:00,
2013-03-17 11:22:00,60.0,12.0,-100.00,NNW,342,8.0,13.0,15,0.00,,,0.00,362.000000,,2013-03-17 18:22:00,
2013-03-17 11:32:00,62.0,11.0,-100.00,NNE,20,4.0,17.0,13,0.00,,,0.00,832.000000,,2013-03-17 18:32:00,
2013-03-17 11:52:00,62.0,11.0,-100.00,NNE,20,4.0,17.0,13,0.00,,,0.00,832.000000,,2013-03-17 18:52:00,
2013-03-17 12:02:00,62.0,11.0,-100.00,NNE,20,4.0,17.0,13,0.00,,,0.00,832.000000,,2013-03-17 19:02:00,
2013-03-17 12:12:00,62.0,11.0,-100.00,NNE,20,4.0,17.0,13,0.00,,,0.00,832.000000,,2013-03-17 19:12:00,
2013-03-17 12:22:00,62.0,11.0,-100.00,NNE,20,4.0,17.0,13,0.00,,,0.00,832.000000,,2013-03-17 19:22:00,
2013-03-17 12:32:00,62.0,15.0,-100.00,NNW,327,8.0,18.0,16,0.00,,,0.00,941.000000,,2013-03-17 19:32:00,
2013-03-17 12:53:00,62.0,15.0,-100.00,NNW,327,8.0,18.0,16,0.00,,,0.00,941.000000,,2013-03-17 19:53:00,
2013-03-17 13:02:00,62.0,15.0,-100.00,NNW,327,8.0,18.0,16,0.00,,,0.00,941.000000,,2013-03-17 20:02:00,
2013-03-17 13:12:00,62.0,15.0,-100.00,NNW,327,8.0,18.0,16,0.00,,,0.00,941.000000,,2013-03-17 20:12:00,
2013-03-17 13:22:00,62.0,15.0,-100.00,NNW,327,8.0,18.0,16,0.00,,,0.00,941.000000,,2013-03-17 20:22:00,
2013-03-17 13:32:00,60.0,25.0,-100.00,NNW,347,14.0,24.0,26,0.00,,,-99.99,1007.000000,,2013-03-17 20:32:00,
2013-03-17 13:52:00,60.0,25.0,-100.00,NNW,347,14.0,24.0,26,0.00,,,-99.99,1007.000000,,2013-03-17 20:52:00,
2013-03-17 14:02:00,60.0,25.0,-100.00,NNW,347,14.0,24.0,26,0.00,,,-99.99,1007.000000,,2013-03-17 21:02:00,
2013-03-17 14:12:00,60.0,25.0,-100.00,NNW,347,14.0,24.0,26,0.00,,,-99.99,1007.000000,,2013-03-17 21:12:00,
2013-03-17 14:22:00,60.0,25.0,-100.00,NNW,347,14.0,24.0,26,0.00,,,-99.99,1007.000000,,2013-03-17 21:22:00,
2013-03-17 14:32:00,63.0,24.0,-100.00,NW,320,11.0,23.0,22,0.00,,,-99.99,982.000000,,2013-03-17 21:32:00,
2013-03-17 14:52:00,63.0,24.0,-100.00,NW,320,11.0,23.0,22,0.00,,,-99.99,982.000000,,2013-03-17 21:52:00,
2013-03-17 15:03:00,63.0,24.0,-100.00,NW,320,11.0,23.0,22,0.00,,,-99.99,982.000000,,2013-03-17 22:03:00,
2013-03-17 15:12:00,63.0,24.0,-100.00,NW,320,11.0,23.0,22,0.00,,,-99.99,982.000000,,2013-03-17 22:12:00,
2013-03-17 15:23:00,63.0,24.0,-100.00,NW,320,11.0,23.0,22,0.00,,,-99.99,982.000000,,2013-03-17 22:23:00,
2013-03-17 15:32:00,63.0,21.0,-100.00,North,354,13.0,25.0,20,0.00,,,0.00,854.000000,,2013-03-17 22:32:00,
2013-03-17 15:53:00,63.0,21.0,-100.00,North,354,13.0,25.0,20,0.00,,,0.00,854.000000,,2013-03-17 22:53:00,
2013-03-17 16:02:00,63.0,21.0,-100.00,North,354,13.0,25.0,20,0.00,,,0.00,854.000000,,2013-03-17 23:02:00,
2013-03-17 16:12:00,63.0,21.0,-100.00,North,354,13.0,25.0,20,0.00,,,0.00,854.000000,,2013-03-17 23:12:00,
2013-03-17 16:22:00,63.0,21.0,-100.00,North,354,13.0,25.0,20,0.00,,,0.00,854.000000,,2013-03-17 23:22:00,
2013-03-17 16:32:00,61.0,23.0,-100.00,NW,314,16.0,27.0,23,0.00,,,0.00,663.000000,,2013-03-17 23:32:00,
2013-03-17 16:53:00,61.0,23.0,-100.00,NW,314,16.0,27.0,23,0.00,,,0.00,663.000000,,2013-03-17 23:53:00,
2013-03-17 17:03:00,61.0,23.0,-100.00,NW,314,16.0,27.0,23,0.00,,,0.00,663.000000,,2013-03-18 00:03:00,
2013-03-17 17:12:00,61.0,23.0,-100.00,NW,314,16.0,27.0,23,0.00,,,0.00,663.000000,,2013-03-18 00:12:00,
2013-03-17 17:22:00,61.0,23.0,-100.00,NW,314,16.0,27.0,23,0.00,,,0.00,663.000000,,2013-03-18 00:22:00,
2013-03-17 17:52:00,58.0,26.0,-100.00,NW,316,18.0,32.0,29,0.00,,,-99.99,299.000000,,2013-03-18 00:52:00,
2013-03-17 18:01:00,58.0,26.0,-100.00,NW,316,18.0,32.0,29,0.00,,,-99.99,299.000000,,2013-03-18 01:01:00,
2013-03-17 18:12:00,58.0,26.0,-100.00,NW,316,18.0,32.0,29,0.00,,,-99.99,299.000000,,2013-03-18 01:12:00,
2013-03-17 18:22:00,58.0,26.0,-100.00,NW,316,18.0,32.0,29,0.00,,,-99.99,299.000000,,2013-03-18 01:22:00,
2013-03-17 18:31:00,58.0,26.0,-100.00,NW,316,18.0,32.0,29,0.00,,,-99.99,299.000000,,2013-03-18 01:31:00,
2013-03-17 18:32:00,54.0,26.0,-100.00,WNW,302,22.0,37.0,33,0.00,,,0.00,28.000000,,2013-03-18 01:32:00,
2013-03-17 18:52:00,54.0,26.0,-100.00,WNW,302,22.0,37.0,33,0.00,,,0.00,28.000000,,2013-03-18 01:52:00,
2013-03-17 19:02:00,54.0,26.0,-100.00,WNW,302,22.0,37.0,33,0.00,,,0.00,28.000000,,2013-03-18 02:02:00,
2013-03-17 19:12:00,54.0,26.0,-100.00,WNW,302,22.0,37.0,33,0.00,,,0.00,28.000000,,2013-03-18 02:12:00,
2013-03-17 19:22:00,54.0,26.0,-100.00,WNW,302,22.0,37.0,33,0.00,,,0.00,28.000000,,2013-03-18 02:22:00,
2013-03-17 19:32:00,52.0,24.0,-100.00,NW,304,26.0,38.0,33,0.00,,,0.00,5.000000,,2013-03-18 02:32:00,
2013-03-17 19:52:00,52.0,24.0,-100.00,NW,304,26.0,38.0,33,0.00,,,0.00,5.000000,,2013-03-18 02:52:00,
2013-03-17 20:02:00,52.0,24.0,-100.00,NW,304,26.0,38.0,33,0.00,,,0.00,5.000000,,2013-03-18 03:02:00,
2013-03-17 20:11:00,52.0,24.0,-100.00,NW,304,26.0,38.0,33,0.00,,,0.00,5.000000,,2013-03-18 03:11:00,
2013-03-17 20:22:00,52.0,24.0,-100.00,NW,304,26.0,38.0,33,0.00,,,0.00,5.000000,,2013-03-18 03:22:00,
2013-03-17 20:32:00,56.0,12.0,-100.00,WNW,293,23.0,37.0,17,0.00,,,0.00,0.000000,,2013-03-18 03:32:00,
2013-03-17 20:53:00,56.0,12.0,-100.00,WNW,293,23.0,37.0,17,0.00,,,0.00,0.000000,,2013-03-18 03:53:00,
2013-03-17 21:03:00,56.0,12.0,-100.00,WNW,293,23.0,37.0,17,0.00,,,0.00,0.000000,,2013-03-18 04:03:00,
2013-03-17 21:12:00,56.0,12.0,-100.00,WNW,293,23.0,37.0,17,0.00,,,0.00,0.000000,,2013-03-18 04:12:00,
2013-03-17 21:22:00,56.0,12.0,-100.00,WNW,293,23.0,37.0,17,0.00,,,0.00,0.000000,,2013-03-18 04:22:00,
2013-03-17 21:52:00,57.0,-4.0,-100.00,WNW,288,24.0,40.0,8,0.00,,,0.00,0.000000,,2013-03-18 04:52:00,
2013-03-17 22:02:00,57.0,-4.0,-100.00,WNW,288,24.0,40.0,8,0.00,,,0.00,0.000000,,2013-03-18 05:02:00,
2013-03-17 22:52:00,58.0,-3.0,-100.00,NW,308,20.0,36.0,8,0.00,,,0.00,0.000000,,2013-03-18 05:52:00,
2013-03-17 23:52:00,59.0,0.0,-100.00,WNW,300,17.0,29.0,9,-99.99,,,0.00,0.000000,,2013-03-18 06:52:00,